Portada
METAR-TAF:

METAR-TAF

Aeroports :

Pekanbaru, Indonèsia

latitud: 00-28N, longitud: 101-27E, altitud: 31 m

Observació

L'informe es va fer fa 8 hores i 25 minuts, a les 09:30 UTC
Vent 6 kt del Est
Temperatura 32°C
Humitat 52%
Pressió 1006 hPa
Visibilitat: 2500 m
fum

METAR: WIBB 210930Z 10006KT 2500 FU VV009 32/21 Q1006

Hora: 00:55 (17:55 UTC)


TAF: manca

Observacions i pronòstics meteorològics de més de 4000 aeroports (METAR i TAF).

Les estacions disponibles són els punts grocs i vermells al mapa.

Posi el ratolí al punt desitjat per veure el nom de l'estació.

Feu clic per veure les observacions i els pronòstics meteorològics.

Per canviar el mapa: feu clic els botons verds amb una creu de color negre per apropar; al botó verd amb un guió per allunyar la imatge; o en les fletxes verdes per a mapes adjacents.


METAR-TAF: